createdAt,value
2023-01-20T00:00:51.217Z,1003.85
2023-01-20T00:01:51.157Z,1003.89
2023-01-20T00:02:51.197Z,1003.90
2023-01-20T00:03:51.160Z,1003.97
2023-01-20T00:04:51.108Z,1003.91
2023-01-20T00:05:51.100Z,1003.96
2023-01-20T00:06:51.097Z,1003.98
2023-01-20T00:07:51.093Z,1003.96
2023-01-20T00:08:51.059Z,1003.96
2023-01-20T00:09:51.054Z,1003.97
2023-01-20T00:10:51.040Z,1003.98
2023-01-20T00:11:51.050Z,1004.02
2023-01-20T00:12:51.020Z,1003.94
2023-01-20T00:13:51.010Z,1003.97
2023-01-20T00:14:51.015Z,1003.99
2023-01-20T00:15:51.000Z,1003.94
2023-01-20T00:16:50.994Z,1003.97
2023-01-20T00:17:50.976Z,1004.03
2023-01-20T00:18:50.963Z,1003.97
2023-01-20T00:19:50.946Z,1003.97
2023-01-20T00:20:50.935Z,1004.00
2023-01-20T00:21:50.936Z,1004.07
2023-01-20T00:22:50.912Z,1004.01
2023-01-20T00:23:50.918Z,1004.02
2023-01-20T00:24:50.894Z,1004.01
2023-01-20T00:25:50.881Z,1004.03
2023-01-20T00:26:50.874Z,1004.07
2023-01-20T00:27:50.875Z,1004.06
2023-01-20T00:28:50.843Z,1004.04
2023-01-20T00:29:50.833Z,1004.09
2023-01-20T00:30:50.873Z,1004.06
2023-01-20T00:31:50.824Z,1004.09
2023-01-20T00:32:50.805Z,1004.10
2023-01-20T00:33:50.789Z,1004.10
2023-01-20T00:34:50.786Z,1004.15
2023-01-20T00:35:50.776Z,1004.20
2023-01-20T00:36:50.771Z,1004.12
2023-01-20T00:37:50.749Z,1004.15
2023-01-20T00:38:50.738Z,1004.20
2023-01-20T00:39:50.726Z,1004.19
2023-01-20T00:40:50.723Z,1004.22
2023-01-20T00:41:50.717Z,1004.15
2023-01-20T00:42:50.698Z,1004.18
2023-01-20T00:43:50.688Z,1004.18
2023-01-20T00:44:50.674Z,1004.18
2023-01-20T00:45:50.664Z,1004.20
2023-01-20T00:46:50.738Z,1004.20
2023-01-20T00:47:50.642Z,1004.21
2023-01-20T00:48:50.639Z,1004.19
2023-01-20T00:49:50.620Z,1004.20
2023-01-20T00:50:50.607Z,1004.23
2023-01-20T00:51:50.656Z,1004.22
2023-01-20T00:52:50.590Z,1004.24
2023-01-20T00:53:50.578Z,1004.28
2023-01-20T00:54:50.577Z,1004.29
2023-01-20T00:55:50.551Z,1004.31
2023-01-20T00:56:50.545Z,1004.32
2023-01-20T00:57:50.538Z,1004.35
2023-01-20T00:58:50.526Z,1004.37
2023-01-20T00:59:50.509Z,1004.37
2023-01-20T01:00:50.573Z,1004.37
2023-01-20T01:01:50.616Z,1004.36
2023-01-20T01:02:50.487Z,1004.35
2023-01-20T01:03:50.464Z,1004.37
2023-01-20T01:04:50.457Z,1004.37
2023-01-20T01:05:50.442Z,1004.35
2023-01-20T01:06:50.433Z,1004.37
2023-01-20T01:07:50.434Z,1004.42
2023-01-20T01:08:50.413Z,1004.40
2023-01-20T01:09:50.400Z,1004.42
2023-01-20T01:10:50.392Z,1004.34
2023-01-20T01:11:50.375Z,1004.39
2023-01-20T01:12:50.378Z,1004.37
2023-01-20T01:13:50.355Z,1004.39
2023-01-20T01:14:50.348Z,1004.37
2023-01-20T01:15:50.397Z,1004.38
2023-01-20T01:16:50.328Z,1004.37
2023-01-20T01:17:50.321Z,1004.41
2023-01-20T01:18:50.311Z,1004.42
2023-01-20T01:19:50.291Z,1004.40
2023-01-20T01:20:50.288Z,1004.40
2023-01-20T01:21:50.275Z,1004.44
2023-01-20T01:22:50.277Z,1004.43
2023-01-20T01:23:50.244Z,1004.46
2023-01-20T01:24:50.240Z,1004.46
2023-01-20T01:25:50.223Z,1004.47
2023-01-20T01:26:50.216Z,1004.51
2023-01-20T01:27:50.220Z,1004.51
2023-01-20T01:28:50.206Z,1004.59
2023-01-20T01:29:50.181Z,1004.57
2023-01-20T01:30:50.216Z,1004.58
2023-01-20T01:31:50.162Z,1004.63
2023-01-20T01:32:50.165Z,1004.61
2023-01-20T01:33:50.143Z,1004.62
2023-01-20T01:34:50.133Z,1004.63
2023-01-20T01:35:50.116Z,1004.65
2023-01-20T01:36:50.116Z,1004.62
2023-01-20T01:37:50.104Z,1004.60
2023-01-20T01:38:58.456Z,1004.59
2023-01-20T01:39:50.079Z,1004.62
2023-01-20T01:40:50.075Z,1004.61
2023-01-20T01:41:50.052Z,1004.67
2023-01-20T01:42:50.076Z,1004.60
2023-01-20T01:43:50.029Z,1004.60
2023-01-20T01:44:50.031Z,1004.65
2023-01-20T01:45:50.085Z,1004.67
2023-01-20T01:46:50.009Z,1004.64
2023-01-20T01:47:50.002Z,1004.67
2023-01-20T01:48:49.980Z,1004.68
2023-01-20T01:49:49.965Z,1004.67
2023-01-20T01:50:49.956Z,1004.68
2023-01-20T01:51:49.942Z,1004.66
2023-01-20T01:52:49.948Z,1004.69
2023-01-20T01:53:49.919Z,1004.66
2023-01-20T01:54:49.915Z,1004.72
2023-01-20T01:55:49.900Z,1004.73
2023-01-20T01:56:49.898Z,1004.70
2023-01-20T01:57:49.886Z,1004.69
2023-01-20T01:58:49.875Z,1004.76
2023-01-20T01:59:49.854Z,1004.78
2023-01-20T02:00:49.897Z,1004.78
2023-01-20T02:01:49.951Z,1004.81
2023-01-20T02:02:49.837Z,1004.83
2023-01-20T02:03:49.814Z,1004.86
2023-01-20T02:04:49.805Z,1004.83
2023-01-20T02:05:49.792Z,1004.86
2023-01-20T02:06:49.781Z,1004.82
2023-01-20T02:07:49.780Z,1004.85
2023-01-20T02:08:49.773Z,1004.84
2023-01-20T02:09:49.747Z,1004.80
2023-01-20T02:10:49.750Z,1004.80
2023-01-20T02:11:49.732Z,1004.85
2023-01-20T02:12:49.747Z,1004.75
2023-01-20T02:13:49.705Z,1004.80
2023-01-20T02:14:49.699Z,1004.85
2023-01-20T02:15:49.684Z,1004.83
2023-01-20T02:16:49.678Z,1004.79
2023-01-20T02:17:49.670Z,1004.82
2023-01-20T02:18:49.656Z,1004.82
2023-01-20T02:19:49.639Z,1004.80
2023-01-20T02:20:49.631Z,1004.79
2023-01-20T02:21:49.628Z,1004.80
2023-01-20T02:22:49.617Z,1004.78
2023-01-20T02:23:49.596Z,1004.81
2023-01-20T02:24:49.588Z,1004.84
2023-01-20T02:25:49.574Z,1004.83
2023-01-20T02:26:49.566Z,1004.83
2023-01-20T02:27:49.571Z,1004.85
2023-01-20T02:28:49.554Z,1004.82
2023-01-20T02:29:49.540Z,1004.87
2023-01-20T02:30:49.569Z,1004.89
2023-01-20T02:31:49.568Z,1004.91
2023-01-20T02:32:49.501Z,1004.90
2023-01-20T02:33:49.491Z,1004.91
2023-01-20T02:34:49.473Z,1004.92
2023-01-20T02:35:49.463Z,1004.97
2023-01-20T02:36:49.454Z,1004.95
2023-01-20T02:37:49.437Z,1005.00
2023-01-20T02:38:49.445Z,1004.99
2023-01-20T02:39:49.422Z,1004.96
2023-01-20T02:40:49.421Z,1004.98
2023-01-20T02:41:49.402Z,1004.98
2023-01-20T02:42:49.415Z,1005.04
2023-01-20T02:43:49.386Z,1005.05
2023-01-20T02:48:14.191Z,1005.08
2023-01-20T02:49:15.168Z,1005.08
2023-01-20T02:50:15.165Z,1005.05
2023-01-20T02:51:15.137Z,1005.06
2023-01-20T02:52:15.140Z,1005.04
2023-01-20T02:53:15.129Z,1005.12
2023-01-20T02:54:15.126Z,1005.16
2023-01-20T02:55:15.313Z,1005.15
2023-01-20T02:56:15.097Z,1005.23
2023-01-20T02:57:15.075Z,1005.16
2023-01-20T02:58:15.083Z,1005.13
2023-01-20T02:59:15.054Z,1005.16
2023-01-20T03:00:15.048Z,1005.16
2023-01-20T03:01:15.142Z,1005.17
2023-01-20T03:02:15.028Z,1005.14
2023-01-20T03:03:15.027Z,1005.18
2023-01-20T03:04:15.016Z,1005.19
2023-01-20T03:05:15.241Z,1005.12
2023-01-20T03:06:14.987Z,1005.14
2023-01-20T03:07:14.969Z,1005.11
2023-01-20T03:08:14.974Z,1005.15
2023-01-20T03:09:14.951Z,1005.15
2023-01-20T03:10:14.940Z,1005.18
2023-01-20T03:11:14.924Z,1005.25
2023-01-20T03:12:14.925Z,1005.23
2023-01-20T03:13:14.928Z,1005.23
2023-01-20T03:14:14.898Z,1005.32
2023-01-20T03:15:15.220Z,1005.27
2023-01-20T03:16:14.947Z,1005.32
2023-01-20T03:17:14.859Z,1005.35
2023-01-20T03:18:14.855Z,1005.34
2023-01-20T03:19:14.857Z,1005.40
2023-01-20T03:20:14.850Z,1005.36
2023-01-20T03:21:14.846Z,1005.39
2023-01-20T03:22:14.812Z,1005.41
2023-01-20T03:23:14.794Z,1005.40
2023-01-20T03:24:14.804Z,1005.48
2023-01-20T03:25:15.104Z,1005.42
2023-01-20T03:26:14.769Z,1005.44
2023-01-20T03:27:14.757Z,1005.46
2023-01-20T03:28:14.744Z,1005.47
2023-01-20T03:29:14.753Z,1005.45
2023-01-20T03:30:14.730Z,1005.46
2023-01-20T03:31:14.847Z,1005.43
2023-01-20T03:32:14.702Z,1005.41
2023-01-20T03:33:14.684Z,1005.48
2023-01-20T03:34:14.700Z,1005.43
2023-01-20T03:35:14.809Z,1005.46
2023-01-20T03:36:14.660Z,1005.46
2023-01-20T03:37:14.639Z,1005.47
2023-01-20T03:38:14.636Z,1005.48
2023-01-20T03:39:14.637Z,1005.50
2023-01-20T03:40:14.620Z,1005.45
2023-01-20T03:41:14.601Z,1005.45
2023-01-20T03:42:14.597Z,1005.49
2023-01-20T03:43:14.578Z,1005.47
2023-01-20T03:44:14.581Z,1005.50
2023-01-20T03:45:14.754Z,1005.47
2023-01-20T03:46:14.624Z,1005.49
2023-01-20T03:47:14.536Z,1005.47
2023-01-20T03:48:14.531Z,1005.49
2023-01-20T03:49:14.523Z,1005.55
2023-01-20T03:50:14.510Z,1005.54
2023-01-20T03:51:14.490Z,1005.56
2023-01-20T03:52:14.481Z,1005.53
2023-01-20T03:53:14.470Z,1005.57
2023-01-20T03:54:14.481Z,1005.60
2023-01-20T03:55:14.669Z,1005.58
2023-01-20T03:56:14.438Z,1005.61
2023-01-20T03:57:14.427Z,1005.63
2023-01-20T03:58:14.418Z,1005.60
2023-01-20T03:59:14.438Z,1005.59
2023-01-20T04:00:14.396Z,1005.60
2023-01-20T04:01:17.970Z,1005.59
2023-01-20T04:02:14.445Z,1005.61
2023-01-20T04:03:14.372Z,1005.60
2023-01-20T04:04:14.372Z,1005.62
2023-01-20T04:05:14.635Z,1005.63
2023-01-20T04:06:14.336Z,1005.63
2023-01-20T04:07:14.314Z,1005.62
2023-01-20T04:08:14.310Z,1005.71
2023-01-20T04:09:14.305Z,1005.67
2023-01-20T04:10:14.290Z,1005.71
2023-01-20T04:11:14.273Z,1005.71
2023-01-20T04:12:14.268Z,1005.69
2023-01-20T04:13:14.258Z,1005.68
2023-01-20T04:14:14.255Z,1005.70
2023-01-20T04:15:14.560Z,1005.69
2023-01-20T04:16:14.223Z,1005.71
2023-01-20T04:17:14.211Z,1005.71
2023-01-20T04:18:14.208Z,1005.69
2023-01-20T04:19:14.198Z,1005.69
2023-01-20T04:20:14.179Z,1005.65
2023-01-20T04:21:14.163Z,1005.63
2023-01-20T04:22:14.158Z,1005.61
2023-01-20T04:23:14.154Z,1005.61
2023-01-20T04:24:14.153Z,1005.63
2023-01-20T04:25:14.411Z,1005.73
2023-01-20T04:26:14.215Z,1005.69
2023-01-20T04:27:14.103Z,1005.70
2023-01-20T04:28:14.091Z,1005.67
2023-01-20T04:29:14.095Z,1005.74
2023-01-20T04:30:14.071Z,1005.73
2023-01-20T04:31:28.945Z,1005.75
2023-01-20T04:32:14.063Z,1005.72
2023-01-20T04:33:14.036Z,1005.78
2023-01-20T04:34:14.040Z,1005.78
2023-01-20T04:35:14.367Z,1005.81
2023-01-20T04:36:14.013Z,1005.81
2023-01-20T04:37:13.991Z,1005.82
2023-01-20T04:38:13.999Z,1005.81
2023-01-20T04:39:13.986Z,1005.85
2023-01-20T04:40:13.996Z,1005.82
2023-01-20T04:41:13.964Z,1005.85
2023-01-20T04:42:13.965Z,1005.88
2023-01-20T04:43:13.926Z,1005.88
2023-01-20T04:44:13.918Z,1005.88
2023-01-20T04:45:14.091Z,1005.85
2023-01-20T04:46:13.943Z,1005.86
2023-01-20T04:47:13.945Z,1005.86
2023-01-20T04:48:13.880Z,1005.88
2023-01-20T04:49:13.865Z,1005.87
2023-01-20T04:50:13.906Z,1005.86
2023-01-20T04:51:13.840Z,1005.89
2023-01-20T04:52:13.833Z,1005.89
2023-01-20T04:53:13.825Z,1005.91
2023-01-20T04:54:13.812Z,1005.91
2023-01-20T04:55:14.180Z,1005.88
2023-01-20T04:56:13.790Z,1005.88
2023-01-20T04:57:13.777Z,1006.00
2023-01-20T04:58:13.769Z,1005.94
2023-01-20T04:59:13.768Z,1005.94
2023-01-20T05:00:13.756Z,1005.95
2023-01-20T05:01:13.833Z,1006.00
2023-01-20T05:02:13.784Z,1005.97
2023-01-20T05:03:13.731Z,1005.99
2023-01-20T05:04:13.699Z,1005.98
2023-01-20T05:05:14.108Z,1005.98
2023-01-20T05:06:13.680Z,1005.98
2023-01-20T05:07:13.670Z,1006.01
2023-01-20T05:08:13.661Z,1005.98
2023-01-20T05:09:13.645Z,1006.03
2023-01-20T05:10:13.652Z,1006.01
2023-01-20T05:11:13.689Z,1006.01
2023-01-20T05:12:13.614Z,1006.03
2023-01-20T05:13:13.602Z,1006.04
2023-01-20T05:14:13.597Z,1006.04
2023-01-20T05:15:13.917Z,1006.06
2023-01-20T05:16:13.647Z,1006.12
2023-01-20T05:17:13.558Z,1006.10
2023-01-20T05:18:13.555Z,1006.05
2023-01-20T05:19:13.537Z,1006.10
2023-01-20T05:20:13.542Z,1006.09
2023-01-20T05:21:13.513Z,1006.12
2023-01-20T05:22:13.507Z,1006.15
2023-01-20T05:23:13.491Z,1006.15
2023-01-20T05:24:13.486Z,1006.15
2023-01-20T05:25:13.741Z,1006.14
2023-01-20T05:26:13.463Z,1006.15
2023-01-20T05:27:13.445Z,1006.16
2023-01-20T05:28:13.438Z,1006.17
2023-01-20T05:29:13.428Z,1006.22
2023-01-20T05:30:13.434Z,1006.21
2023-01-20T05:31:13.513Z,1006.15
2023-01-20T05:32:13.398Z,1006.17
2023-01-20T05:33:13.505Z,1006.15
2023-01-20T05:34:13.381Z,1006.20
2023-01-20T05:35:13.799Z,1006.15
2023-01-20T05:36:13.356Z,1006.17
2023-01-20T05:37:13.340Z,1006.24
2023-01-20T05:38:13.344Z,1006.22
2023-01-20T05:39:13.324Z,1006.22
2023-01-20T05:40:13.322Z,1006.24
2023-01-20T05:41:13.295Z,1006.28
2023-01-20T05:42:13.288Z,1006.26
2023-01-20T05:43:13.268Z,1006.25
2023-01-20T05:44:13.288Z,1006.26
2023-01-20T05:45:13.611Z,1006.26
2023-01-20T05:46:13.268Z,1006.32
2023-01-20T05:47:13.228Z,1006.36
2023-01-20T05:48:13.222Z,1006.37
2023-01-20T05:49:13.217Z,1006.35
2023-01-20T05:50:13.211Z,1006.42
2023-01-20T05:51:13.189Z,1006.40
2023-01-20T05:52:13.176Z,1006.36
2023-01-20T05:53:13.172Z,1006.43
2023-01-20T05:54:13.156Z,1006.45
2023-01-20T05:55:13.665Z,1006.44
2023-01-20T05:56:13.132Z,1006.48
2023-01-20T05:57:13.125Z,1006.45
2023-01-20T05:58:13.118Z,1006.45
2023-01-20T05:59:13.105Z,1006.43
2023-01-20T06:00:13.099Z,1006.47
2023-01-20T06:01:13.116Z,1006.50
2023-01-20T06:02:13.073Z,1006.51
2023-01-20T06:03:13.057Z,1006.55
2023-01-20T06:04:13.056Z,1006.55
2023-01-20T06:05:13.496Z,1006.52
2023-01-20T06:06:13.032Z,1006.52
2023-01-20T06:07:13.012Z,1006.54
2023-01-20T06:08:13.014Z,1006.57
2023-01-20T06:09:13.064Z,1006.57
2023-01-20T06:10:13.001Z,1006.57
2023-01-20T06:11:13.000Z,1006.58
2023-01-20T06:12:12.978Z,1006.62
2023-01-20T06:13:13.002Z,1006.62
2023-01-20T06:14:12.943Z,1006.62
2023-01-20T06:15:13.461Z,1006.64
2023-01-20T06:16:13.009Z,1006.58
2023-01-20T06:17:12.907Z,1006.65
2023-01-20T06:18:12.899Z,1006.68
2023-01-20T06:19:12.898Z,1006.66
2023-01-20T06:20:12.989Z,1006.68
2023-01-20T06:21:12.877Z,1006.70
2023-01-20T06:22:12.866Z,1006.72
2023-01-20T06:23:12.848Z,1006.73
2023-01-20T06:24:12.833Z,1006.74
2023-01-20T06:25:13.392Z,1006.74
2023-01-20T06:26:12.867Z,1006.77
2023-01-20T06:27:13.778Z,1006.74
2023-01-20T06:28:12.791Z,1006.75
2023-01-20T06:29:12.790Z,1006.75
2023-01-20T06:30:12.782Z,1006.73
2023-01-20T06:31:12.881Z,1006.74
2023-01-20T06:32:12.789Z,1006.79
2023-01-20T06:33:12.766Z,1006.77
2023-01-20T06:34:12.757Z,1006.76
2023-01-20T06:35:13.102Z,1006.75
2023-01-20T06:36:12.718Z,1006.76
2023-01-20T06:37:12.717Z,1006.76
2023-01-20T06:38:12.689Z,1006.77
2023-01-20T06:39:12.677Z,1006.76
2023-01-20T06:40:12.700Z,1006.80
2023-01-20T06:41:12.647Z,1006.77
2023-01-20T06:42:12.646Z,1006.82
2023-01-20T06:43:12.624Z,1006.79
2023-01-20T06:44:12.661Z,1006.78
2023-01-20T06:45:12.928Z,1006.77
2023-01-20T06:46:12.649Z,1006.76
2023-01-20T06:47:12.610Z,1006.75
2023-01-20T06:48:13.007Z,1006.80
2023-01-20T06:49:12.593Z,1006.81
2023-01-20T06:50:12.579Z,1006.81
2023-01-20T06:51:12.548Z,1006.81
2023-01-20T06:52:12.530Z,1006.86
2023-01-20T06:53:12.516Z,1006.82
2023-01-20T06:54:12.520Z,1006.86
2023-01-20T06:55:13.041Z,1006.84
2023-01-20T06:56:12.499Z,1006.90
2023-01-20T06:57:12.471Z,1006.90
2023-01-20T06:58:12.471Z,1006.96
2023-01-20T06:59:12.450Z,1006.92
2023-01-20T07:00:12.443Z,1006.92
2023-01-20T07:01:12.584Z,1006.90
2023-01-20T07:02:12.523Z,1006.93
2023-01-20T07:03:14.083Z,1006.97
2023-01-20T07:04:12.399Z,1006.96
2023-01-20T07:05:12.804Z,1006.99
2023-01-20T07:06:12.389Z,1006.98
2023-01-20T07:07:12.520Z,1007.00
2023-01-20T07:08:12.355Z,1007.05
2023-01-20T07:09:12.355Z,1007.09
2023-01-20T07:10:12.337Z,1007.06
2023-01-20T07:11:12.348Z,1007.06
2023-01-20T07:12:12.311Z,1007.04
2023-01-20T07:13:12.297Z,1007.07
2023-01-20T07:14:12.298Z,1007.09
2023-01-20T07:15:12.439Z,1007.09
2023-01-20T07:16:15.387Z,1007.08
2023-01-20T07:17:12.263Z,1007.16
2023-01-20T07:18:12.256Z,1007.15
2023-01-20T07:19:12.247Z,1007.19
2023-01-20T07:20:12.236Z,1007.13
2023-01-20T07:21:12.224Z,1007.10
2023-01-20T07:22:12.207Z,1007.12
2023-01-20T07:23:12.188Z,1007.18
2023-01-20T07:24:12.183Z,1007.18
2023-01-20T07:25:12.418Z,1007.21
2023-01-20T07:26:12.176Z,1007.25
2023-01-20T07:27:12.150Z,1007.26
2023-01-20T07:28:12.160Z,1007.25
2023-01-20T07:29:12.127Z,1007.26
2023-01-20T07:30:12.124Z,1007.27
2023-01-20T07:31:12.195Z,1007.27
2023-01-20T07:32:12.094Z,1007.31
2023-01-20T07:33:12.081Z,1007.29
2023-01-20T07:34:12.075Z,1007.29
2023-01-20T07:35:12.115Z,1007.33
2023-01-20T07:36:12.065Z,1007.35
2023-01-20T07:37:12.040Z,1007.39
2023-01-20T07:38:12.029Z,1007.36
2023-01-20T07:39:12.020Z,1007.39
2023-01-20T07:40:12.010Z,1007.43
2023-01-20T07:41:12.006Z,1007.44
2023-01-20T07:42:11.988Z,1007.39
2023-01-20T07:43:11.971Z,1007.42
2023-01-20T07:44:12.006Z,1007.45
2023-01-20T07:45:12.037Z,1007.48
2023-01-20T07:46:11.961Z,1007.46
2023-01-20T07:47:11.929Z,1007.49
2023-01-20T07:48:11.946Z,1007.47
2023-01-20T07:49:12.416Z,1007.45
2023-01-20T07:50:11.907Z,1007.55
2023-01-20T07:51:11.934Z,1007.53
2023-01-20T07:52:11.890Z,1007.51
2023-01-20T07:53:11.863Z,1007.54
2023-01-20T07:54:11.866Z,1007.53
2023-01-20T07:55:11.842Z,1007.55
2023-01-20T07:56:11.848Z,1007.60
2023-01-20T07:57:11.823Z,1007.58
2023-01-20T07:58:11.846Z,1007.59
2023-01-20T07:59:11.797Z,1007.63
2023-01-20T08:00:11.791Z,1007.65
2023-01-20T08:01:11.913Z,1007.69
2023-01-20T08:02:11.817Z,1007.69
2023-01-20T08:03:11.756Z,1007.72
2023-01-20T08:04:11.748Z,1007.71
2023-01-20T08:05:11.738Z,1007.71
2023-01-20T08:06:11.746Z,1007.74
2023-01-20T08:07:11.713Z,1007.79
2023-01-20T08:08:11.719Z,1007.77
2023-01-20T08:09:11.693Z,1007.79
2023-01-20T08:10:11.685Z,1007.83
2023-01-20T08:11:11.739Z,1007.80
2023-01-20T08:12:11.664Z,1007.81
2023-01-20T08:13:11.647Z,1007.85
2023-01-20T08:14:11.639Z,1007.84
2023-01-20T08:15:11.633Z,1007.85
2023-01-20T08:16:11.670Z,1007.87
2023-01-20T08:17:11.602Z,1007.91
2023-01-20T08:18:11.596Z,1007.93
2023-01-20T08:19:11.582Z,1007.92
2023-01-20T08:20:11.596Z,1007.89
2023-01-20T08:21:11.573Z,1007.92
2023-01-20T08:22:11.555Z,1007.93
2023-01-20T08:23:11.568Z,1007.93
2023-01-20T08:24:11.547Z,1007.93
2023-01-20T08:25:11.588Z,1007.95
2023-01-20T08:26:11.523Z,1008.01
2023-01-20T08:27:11.492Z,1008.00
2023-01-20T08:28:11.487Z,1007.96
2023-01-20T08:29:11.492Z,1008.03
2023-01-20T08:30:11.468Z,1008.03
2023-01-20T08:31:11.641Z,1008.07
2023-01-20T08:32:11.444Z,1008.06
2023-01-20T08:33:11.431Z,1008.08
2023-01-20T08:34:11.421Z,1008.12
2023-01-20T08:35:11.414Z,1008.15
2023-01-20T08:36:11.411Z,1008.09
2023-01-20T08:37:11.391Z,1008.15
2023-01-20T08:38:11.374Z,1008.14
2023-01-20T08:39:11.368Z,1008.16
2023-01-20T08:40:11.353Z,1008.17
2023-01-20T08:41:11.367Z,1008.18
2023-01-20T08:42:11.335Z,1008.17
2023-01-20T08:43:11.316Z,1008.21
2023-01-20T08:44:11.320Z,1008.19
2023-01-20T08:45:11.303Z,1008.20
2023-01-20T08:46:11.317Z,1008.20
2023-01-20T08:47:11.275Z,1008.19
2023-01-20T08:48:11.261Z,1008.18
2023-01-20T08:49:11.264Z,1008.26
2023-01-20T08:50:11.246Z,1008.26
2023-01-20T08:51:11.246Z,1008.24
2023-01-20T08:52:12.286Z,1008.26
2023-01-20T08:53:11.215Z,1008.32
2023-01-20T08:54:11.197Z,1008.31
2023-01-20T08:55:11.214Z,1008.31
2023-01-20T08:56:11.193Z,1008.32
2023-01-20T08:57:11.167Z,1008.35
2023-01-20T08:58:11.153Z,1008.35
2023-01-20T08:59:11.155Z,1008.37
2023-01-20T09:00:11.146Z,1008.34
2023-01-20T09:01:11.167Z,1008.36
2023-01-20T09:02:11.189Z,1008.32
2023-01-20T09:03:11.108Z,1008.35
2023-01-20T09:04:11.092Z,1008.38
2023-01-20T09:05:11.094Z,1008.40
2023-01-20T09:06:11.088Z,1008.40
2023-01-20T09:07:11.063Z,1008.39
2023-01-20T09:08:11.045Z,1008.38
2023-01-20T09:09:11.047Z,1008.45
2023-01-20T09:10:11.026Z,1008.39
2023-01-20T09:11:11.074Z,1008.42
2023-01-20T09:12:11.003Z,1008.45
2023-01-20T09:13:11.006Z,1008.44
2023-01-20T09:14:10.988Z,1008.44
2023-01-20T09:15:10.990Z,1008.41
2023-01-20T09:16:11.029Z,1008.44
2023-01-20T09:17:10.953Z,1008.44
2023-01-20T09:18:10.940Z,1008.47
2023-01-20T09:19:10.930Z,1008.45
2023-01-20T09:20:10.911Z,1008.45
2023-01-20T09:21:10.932Z,1008.48
2023-01-20T09:22:10.956Z,1008.51
2023-01-20T09:23:10.884Z,1008.50
2023-01-20T09:24:10.876Z,1008.50
2023-01-20T09:25:10.861Z,1008.52
2023-01-20T09:26:10.859Z,1008.50
2023-01-20T09:27:10.852Z,1008.53
2023-01-20T09:28:10.824Z,1008.53
2023-01-20T09:29:10.821Z,1008.58
2023-01-20T09:30:10.805Z,1008.57
2023-01-20T09:31:10.885Z,1008.54
2023-01-20T09:32:10.795Z,1008.61
2023-01-20T09:33:10.777Z,1008.58
2023-01-20T09:34:10.762Z,1008.59
2023-01-20T09:35:10.820Z,1008.60
2023-01-20T09:36:10.737Z,1008.62
2023-01-20T09:37:10.741Z,1008.59
2023-01-20T09:38:10.719Z,1008.61
2023-01-20T09:39:10.710Z,1008.63
2023-01-20T09:40:10.693Z,1008.60
2023-01-20T09:41:10.691Z,1008.65
2023-01-20T09:42:10.689Z,1008.60
2023-01-20T09:43:10.668Z,1008.63
2023-01-20T09:44:10.654Z,1008.62
2023-01-20T09:45:10.646Z,1008.67
2023-01-20T09:46:10.667Z,1008.64
2023-01-20T09:47:10.634Z,1008.65
2023-01-20T09:48:10.604Z,1008.66
2023-01-20T09:49:10.598Z,1008.68
2023-01-20T09:50:10.596Z,1008.72
2023-01-20T09:51:10.577Z,1008.68
2023-01-20T09:52:10.573Z,1008.70
2023-01-20T09:53:10.559Z,1008.70
2023-01-20T09:54:10.539Z,1008.69
2023-01-20T09:55:10.536Z,1008.72
2023-01-20T09:56:10.530Z,1008.71
2023-01-20T09:57:10.522Z,1008.69
2023-01-20T09:58:10.497Z,1008.74
2023-01-20T09:59:10.500Z,1008.74
2023-01-20T10:00:10.483Z,1008.74
2023-01-20T10:01:10.529Z,1008.79
2023-01-20T10:02:10.464Z,1008.71
2023-01-20T10:03:10.447Z,1008.77
2023-01-20T10:04:10.437Z,1008.78
2023-01-20T10:05:10.451Z,1008.76
2023-01-20T10:06:10.410Z,1008.81
2023-01-20T10:07:10.413Z,1008.78
2023-01-20T10:08:10.390Z,1008.79
2023-01-20T10:09:10.390Z,1008.80
2023-01-20T10:10:10.367Z,1008.84
2023-01-20T10:11:10.422Z,1008.83
2023-01-20T10:12:10.350Z,1008.83
2023-01-20T10:13:10.348Z,1008.86
2023-01-20T10:14:10.325Z,1008.88
2023-01-20T10:15:10.321Z,1008.86
2023-01-20T10:16:10.367Z,1008.88
2023-01-20T10:17:10.300Z,1008.89
2023-01-20T10:18:10.312Z,1008.90
2023-01-20T10:19:10.273Z,1008.87
2023-01-20T10:20:10.263Z,1008.90
2023-01-20T10:21:10.243Z,1008.88
2023-01-20T10:22:10.266Z,1008.86
2023-01-20T10:23:10.224Z,1008.89
2023-01-20T10:24:10.217Z,1008.89
2023-01-20T10:25:10.207Z,1008.90
2023-01-20T10:26:10.198Z,1008.93
2023-01-20T10:27:10.191Z,1008.95
2023-01-20T10:28:10.186Z,1008.95
2023-01-20T10:29:10.157Z,1008.91
2023-01-20T10:30:10.153Z,1008.91
2023-01-20T10:31:10.275Z,1008.89
2023-01-20T10:32:10.151Z,1008.88
2023-01-20T10:33:10.113Z,1008.88
2023-01-20T10:34:10.107Z,1008.87
2023-01-20T10:35:10.090Z,1008.86
2023-01-20T10:36:10.084Z,1008.85
2023-01-20T10:37:10.118Z,1008.89
2023-01-20T10:38:10.073Z,1008.87
2023-01-20T10:39:10.048Z,1008.86
2023-01-20T10:40:10.041Z,1008.92
2023-01-20T10:41:10.033Z,1008.91
2023-01-20T10:42:10.043Z,1008.92
2023-01-20T10:43:10.006Z,1008.90
2023-01-20T10:44:10.000Z,1008.88
2023-01-20T10:45:09.983Z,1008.89
2023-01-20T10:46:12.384Z,1008.89
2023-01-20T10:47:11.172Z,1008.89
2023-01-20T10:48:09.974Z,1008.86
2023-01-20T10:49:09.942Z,1008.85
2023-01-20T10:50:09.933Z,1008.88
2023-01-20T10:51:09.921Z,1008.88
2023-01-20T10:52:10.014Z,1008.81
2023-01-20T10:53:11.798Z,1008.80
2023-01-20T10:54:09.900Z,1008.80
2023-01-20T10:55:09.872Z,1008.79
2023-01-20T10:56:09.875Z,1008.83
2023-01-20T10:57:09.856Z,1008.82
2023-01-20T10:58:09.857Z,1008.86
2023-01-20T10:59:09.830Z,1008.82
2023-01-20T11:00:09.829Z,1008.89
2023-01-20T11:01:09.809Z,1008.85
2023-01-20T11:02:12.366Z,1008.91
2023-01-20T11:03:09.838Z,1008.87
2023-01-20T11:04:09.781Z,1008.85
2023-01-20T11:05:09.871Z,1008.88
2023-01-20T11:06:09.765Z,1008.93
2023-01-20T11:07:09.753Z,1008.93
2023-01-20T11:08:09.764Z,1008.90
2023-01-20T11:09:09.728Z,1008.95
2023-01-20T11:10:09.719Z,1008.94
2023-01-20T11:11:09.703Z,1008.92
2023-01-20T11:12:09.698Z,1008.94
2023-01-20T11:13:09.692Z,1008.93
2023-01-20T11:14:09.672Z,1008.93
2023-01-20T11:15:09.654Z,1008.96
2023-01-20T11:16:09.766Z,1008.97
2023-01-20T11:17:09.636Z,1008.94
2023-01-20T11:18:09.668Z,1008.98
2023-01-20T11:19:09.616Z,1008.99
2023-01-20T11:20:09.608Z,1008.99
2023-01-20T11:21:09.593Z,1008.96
2023-01-20T11:22:09.596Z,1009.01
2023-01-20T11:23:09.588Z,1008.98
2023-01-20T11:24:09.589Z,1009.00
2023-01-20T11:25:09.548Z,1008.98
2023-01-20T11:26:09.542Z,1009.03
2023-01-20T11:27:09.530Z,1009.04
2023-01-20T11:28:09.542Z,1009.02
2023-01-20T11:29:09.511Z,1009.04
2023-01-20T11:30:09.498Z,1009.02
2023-01-20T11:31:09.554Z,1009.08
2023-01-20T11:32:09.478Z,1009.09
2023-01-20T11:33:09.541Z,1009.09
2023-01-20T11:34:09.462Z,1009.09
2023-01-20T11:35:09.441Z,1009.16
2023-01-20T11:36:09.435Z,1009.15
2023-01-20T11:37:09.428Z,1009.18
2023-01-20T11:38:09.425Z,1009.12
2023-01-20T11:39:09.396Z,1009.14
2023-01-20T11:40:09.394Z,1009.19
2023-01-20T11:41:09.379Z,1009.15
2023-01-20T11:42:09.372Z,1009.14
2023-01-20T11:43:09.363Z,1009.23
2023-01-20T11:44:09.366Z,1009.13
2023-01-20T11:45:21.239Z,1009.22
2023-01-20T11:46:09.331Z,1009.24
2023-01-20T11:47:09.314Z,1009.25
2023-01-20T11:48:09.312Z,1009.26
2023-01-20T11:49:09.295Z,1009.31
2023-01-20T11:50:09.293Z,1009.26
2023-01-20T11:51:09.299Z,1009.27
2023-01-20T11:52:09.256Z,1009.26
2023-01-20T11:53:09.298Z,1009.28
2023-01-20T11:54:09.233Z,1009.24
2023-01-20T11:55:09.260Z,1009.25
2023-01-20T11:56:09.240Z,1009.23
2023-01-20T11:57:09.204Z,1009.25
2023-01-20T11:58:09.207Z,1009.22
2023-01-20T11:59:09.192Z,1009.24
2023-01-20T12:00:09.177Z,1009.31
2023-01-20T12:01:09.165Z,1009.29
2023-01-20T12:02:09.250Z,1009.24
2023-01-20T12:03:09.153Z,1009.26
2023-01-20T12:04:09.231Z,1009.28
2023-01-20T12:05:09.124Z,1009.28
2023-01-20T12:06:09.106Z,1009.28
2023-01-20T12:07:09.124Z,1009.27
2023-01-20T12:08:09.093Z,1009.29
2023-01-20T12:09:09.113Z,1009.32